Time;durP1;ratioP1;P1;durP2;ratioP2;P2;SDS_P1;SDS_P2;PMS_P1;PMS_P2;Temp;Humidity;BMP_temperature;BMP_pressure;BME280_temperature;BME280_humidity;BME280_pressure;Samples;Min_cycle;Max_cycle;Signal;HPM_P1;HPM_P2
2023/08/05 00:01:20;;;;;;;3.33;1.80;;;;;;;17.88;63.91;101637.72;5142641;27;20092;-62
2023/08/05 00:03:48;;;;;;;3.85;2.25;;;;;;;17.88;63.88;101637.72;5147201;27;20054;-62
2023/08/05 00:06:15;;;;;;;6.22;1.75;;;;;;;17.88;63.80;101641.25;5142763;27;20050;-62
2023/08/05 00:08:44;;;;;;;7.30;2.00;;;;;;;17.87;63.88;101634.19;5139051;27;20073;-62
2023/08/05 00:11:14;;;;;;;4.32;2.00;;;;;;;17.86;64.00;101629.81;5141903;27;20108;-62
2023/08/05 00:13:41;;;;;;;3.92;1.70;;;;;;;17.86;63.94;101635.25;5142705;27;20112;-62
2023/08/05 00:16:09;;;;;;;5.93;2.22;;;;;;;17.86;63.95;101623.56;5144133;27;20072;-62
2023/08/05 00:18:37;;;;;;;3.05;1.90;;;;;;;17.86;64.04;101620.84;5141553;27;20043;-62
2023/08/05 00:21:05;;;;;;;7.00;1.90;;;;;;;17.86;64.04;101620.84;5143893;27;20039;-62
2023/08/05 00:23:33;;;;;;;4.70;2.35;;;;;;;17.85;64.15;101616.47;5146883;27;20065;-62
2023/08/05 00:26:00;;;;;;;5.55;2.25;;;;;;;17.84;64.06;101615.66;5144161;27;20036;-61
2023/08/05 00:28:29;;;;;;;3.75;1.95;;;;;;;17.84;63.85;101622.97;5143753;27;20055;-60
2023/08/05 00:30:57;;;;;;;4.60;2.50;;;;;;;17.84;63.90;101618.38;5144861;27;20096;-62
2023/08/05 00:33:25;;;;;;;5.40;2.20;;;;;;;17.84;63.94;101623.81;5142674;27;20061;-61
2023/08/05 00:35:53;;;;;;;4.13;1.80;;;;;;;17.83;63.82;101621.34;5145102;27;20100;-62
2023/08/05 00:38:21;;;;;;;3.33;1.83;;;;;;;17.82;64.23;101617.81;5145891;27;20076;-62
2023/08/05 00:40:48;;;;;;;5.03;2.55;;;;;;;17.80;64.25;101619.94;5146347;27;20047;-62
2023/08/05 00:43:16;;;;;;;4.57;2.00;;;;;;;17.82;64.23;101616.97;5144792;27;20051;-60
2023/08/05 00:45:46;;;;;;;4.35;2.40;;;;;;;17.81;64.09;101618.88;5145017;27;20047;-62
2023/08/05 00:48:14;;;;;;;5.78;2.20;;;;;;;17.81;64.30;101613.44;5147393;27;20403;-61
2023/08/05 00:50:43;;;;;;;8.63;2.08;;;;;;;17.80;64.24;101602.81;5148040;27;20047;-62
2023/08/05 00:53:11;;;;;;;5.13;2.00;;;;;;;17.80;64.21;101611.78;5142348;27;20062;-62
2023/08/05 00:55:41;;;;;;;5.15;2.58;;;;;;;17.80;64.30;101602.81;5143581;27;20047;-63
2023/08/05 00:58:10;;;;;;;3.22;2.08;;;;;;;17.78;64.36;101597.63;5144142;27;20065;-62
2023/08/05 01:00:37;;;;;;;5.38;2.33;;;;;;;17.78;64.31;101594.91;5145554;27;20051;-62
2023/08/05 01:03:07;;;;;;;5.55;2.47;;;;;;;17.79;64.30;101595.72;5144933;27;20047;-62
2023/08/05 01:05:36;;;;;;;6.10;1.88;;;;;;;17.77;64.39;101585.09;5145453;27;20115;-62
2023/08/05 01:08:05;;;;;;;2.92;1.80;;;;;;;17.74;64.39;101582.88;5137520;27;20090;-61
2023/08/05 01:10:33;;;;;;;6.57;2.72;;;;;;;17.76;64.39;101588.91;5141875;27;20051;-62
2023/08/05 01:13:01;;;;;;;4.20;1.98;;;;;;;17.75;64.47;101583.69;5141890;27;20055;-61
2023/08/05 01:15:28;;;;;;;8.63;2.40;;;;;;;17.76;64.37;101579.91;5144551;27;20128;-62
2023/08/05 01:17:57;;;;;;;3.97;2.42;;;;;;;17.73;64.51;101570.38;5143236;27;20047;-62
2023/08/05 01:20:33;;;;;;;4.78;2.42;;;;;;;17.73;64.48;101583.13;5144266;27;20114;-62
2023/08/05 01:23:08;;;;;;;5.20;2.33;;;;;;;17.72;64.52;101571.44;5142496;27;20047;-62
2023/08/05 01:25:38;;;;;;;3.95;2.03;;;;;;;17.72;64.50;101576.88;5142588;27;20143;-62
2023/08/05 01:28:08;;;;;;;5.53;2.50;;;;;;;17.72;64.57;101573.34;5142442;27;20050;-62
2023/08/05 01:30:36;;;;;;;4.18;2.03;;;;;;;17.71;64.50;101577.13;5142414;27;20043;-61
2023/08/05 01:33:05;;;;;;;2.58;2.00;;;;;;;17.71;64.48;101579.84;5140063;27;20051;-62
2023/08/05 01:35:33;;;;;;;3.35;2.28;;;;;;;17.70;64.46;101576.31;5144291;27;20734;-61
2023/08/05 01:38:00;;;;;;;4.13;2.55;;;;;;;17.70;64.36;101575.47;5142096;27;20054;-62
2023/08/05 01:40:29;;;;;;;5.15;2.10;;;;;;;17.68;64.59;101575.72;5141575;27;20051;-62
2023/08/05 01:42:58;;;;;;;7.55;2.88;;;;;;;17.68;64.59;101570.28;5144371;27;20078;-61
2023/08/05 01:45:27;;;;;;;2.42;1.90;;;;;;;17.67;64.40;101571.38;5142558;27;20070;-62
2023/08/05 01:47:54;;;;;;;3.90;2.45;;;;;;;17.66;64.59;101575.16;5143511;27;20051;-62
2023/08/05 01:50:23;;;;;;;5.25;2.30;;;;;;;17.67;64.50;101581.41;5141431;27;20043;-62
2023/08/05 01:52:53;;;;;;;6.55;2.22;;;;;;;17.66;64.59;101566.19;5142585;27;20050;-62
2023/08/05 01:55:21;;;;;;;2.95;2.33;;;;;;;17.66;64.64;101574.34;5144110;27;20104;-63
2023/08/05 01:57:49;;;;;;;3.47;2.10;;;;;;;17.65;64.70;101564.50;5141490;27;21732;-63
2023/08/05 02:00:20;;;;;;;3.63;2.13;;;;;;;17.65;64.74;101572.66;5143497;27;20043;-62
2023/08/05 02:02:48;;;;;;;5.72;2.15;;;;;;;17.63;64.62;101572.91;5142870;27;20052;-62
2023/08/05 02:05:16;;;;;;;10.57;2.72;;;;;;;17.64;64.84;101573.72;5142781;27;20077;-62
2023/08/05 02:07:44;;;;;;;6.35;2.30;;;;;;;17.64;64.66;101581.88;5140497;27;20445;-62
2023/08/05 02:10:12;;;;;;;4.18;2.40;;;;;;;17.62;64.69;101573.97;5143181;27;20046;-61
2023/08/05 02:12:39;;;;;;;4.25;2.55;;;;;;;17.61;64.57;101575.06;5142141;27;20047;-63
2023/08/05 02:15:08;;;;;;;3.83;2.28;;;;;;;17.60;64.92;101573.41;5141322;27;20054;-63
2023/08/05 02:17:37;;;;;;;4.70;2.50;;;;;;;17.58;64.70;101572.84;5144231;27;20537;-62
2023/08/05 02:20:08;;;;;;;6.32;2.63;;;;;;;17.59;64.65;101579.91;5143342;27;20068;-63
2023/08/05 02:22:37;;;;;;;6.85;2.90;;;;;;;17.58;64.58;101581.81;5139909;27;20043;-62
2023/08/05 02:25:06;;;;;;;5.60;2.67;;;;;;;17.57;64.78;101585.63;5139290;27;20043;-63
2023/08/05 02:27:34;;;;;;;6.18;2.88;;;;;;;17.57;64.73;101574.75;5138607;27;20048;-63
2023/08/05 02:30:01;;;;;;;6.13;2.40;;;;;;;17.56;64.69;101567.66;5141179;27;20055;-62
2023/08/05 02:32:29;;;;;;;9.38;2.58;;;;;;;17.56;64.86;101572.28;5140166;27;20054;-62
2023/08/05 02:34:58;;;;;;;4.20;2.65;;;;;;;17.54;64.82;101561.66;5143006;27;20115;-62
2023/08/05 02:37:26;;;;;;;4.03;3.00;;;;;;;17.55;64.71;101563.28;5143671;27;20072;-62
2023/08/05 02:39:55;;;;;;;5.75;2.53;;;;;;;17.54;64.78;101558.94;5142287;27;20138;-62
2023/08/05 02:42:23;;;;;;;7.47;3.13;;;;;;;17.54;64.70;101553.50;5139445;27;20426;-62
2023/08/05 02:44:50;;;;;;;4.82;2.58;;;;;;;17.52;64.68;101552.91;5141791;27;20075;-62
2023/08/05 02:47:18;;;;;;;4.50;2.80;;;;;;;17.52;64.69;101543.94;5136473;27;20043;-62
2023/08/05 02:49:46;;;;;;;4.45;2.70;;;;;;;17.52;64.67;101543.94;5141149;27;20479;-62
2023/08/05 02:52:15;;;;;;;4.93;2.88;;;;;;;17.50;64.58;101536.03;5142317;27;20043;-63
2023/08/05 02:54:43;;;;;;;4.63;2.50;;;;;;;17.49;64.76;101539.00;5138138;27;20054;-63
2023/08/05 02:57:10;;;;;;;4.65;2.53;;;;;;;17.49;64.69;101534.41;5138613;27;20050;-62
2023/08/05 02:59:38;;;;;;;9.60;3.25;;;;;;;17.47;64.75;101527.56;5143001;27;20043;-62
2023/08/05 03:02:06;;;;;;;2.80;2.30;;;;;;;17.48;64.65;101527.31;5138892;27;20047;-62
2023/08/05 03:04:34;;;;;;;4.88;3.13;;;;;;;17.47;64.62;101536.53;5142891;27;20142;-62
2023/08/05 03:07:02;;;;;;;5.00;2.80;;;;;;;17.45;64.68;101544.13;5140855;27;20043;-62
2023/08/05 03:09:31;;;;;;;5.55;3.03;;;;;;;17.45;64.73;101543.31;5141755;27;20058;-62
2023/08/05 03:11:59;;;;;;;3.70;2.47;;;;;;;17.45;64.69;101540.59;5139926;27;20047;-62
2023/08/05 03:14:26;;;;;;;6.50;2.58;;;;;;;17.43;64.71;101521.00;5142749;27;20428;-62
2023/08/05 03:16:54;;;;;;;4.20;2.80;;;;;;;17.42;64.53;101517.44;5139765;27;20046;-62
2023/08/05 03:19:22;;;;;;;4.25;2.63;;;;;;;17.41;64.45;101513.09;5138975;27;20043;-62
2023/08/05 03:21:50;;;;;;;4.53;2.80;;;;;;;17.41;64.60;101514.97;5138264;27;20047;-62
2023/08/05 03:24:17;;;;;;;8.10;2.92;;;;;;;17.40;64.55;101507.91;5140076;27;20047;-62
2023/08/05 03:26:47;;;;;;;4.90;2.50;;;;;;;17.39;64.56;101517.94;5139200;27;20074;-63
2023/08/05 03:29:15;;;;;;;5.03;3.15;;;;;;;17.38;64.74;101504.63;5141076;27;20527;-62
2023/08/05 03:31:46;;;;;;;14.63;3.53;;;;;;;17.36;64.57;101513.03;5142631;27;20077;-62
2023/08/05 03:34:14;;;;;;;3.70;2.80;;;;;;;17.35;64.51;101516.81;5142588;27;20051;-62
2023/08/05 03:36:42;;;;;;;6.80;2.45;;;;;;;17.35;64.41;101507.84;5141423;28;20492;-62
2023/08/05 03:39:09;;;;;;;7.05;3.35;;;;;;;17.34;64.61;101503.47;5139317;28;20039;-63
2023/08/05 03:41:36;;;;;;;3.63;2.35;;;;;;;17.33;64.68;101497.25;5143512;28;20075;-63
2023/08/05 03:44:05;;;;;;;3.92;2.50;;;;;;;17.33;64.63;101497.25;5137696;28;20068;-64
2023/08/05 03:46:33;;;;;;;5.13;2.97;;;;;;;17.33;64.62;101493.72;5141893;28;20415;-62
2023/08/05 03:49:02;;;;;;;6.03;2.60;;;;;;;17.31;64.55;101491.25;5142728;28;20039;-62
2023/08/05 03:51:30;;;;;;;3.67;2.50;;;;;;;17.30;64.67;101478.72;5136782;27;20075;-62
2023/08/05 03:53:58;;;;;;;6.03;2.78;;;;;;;17.29;64.59;101476.28;5139442;28;20050;-61
2023/08/05 03:56:27;;;;;;;4.57;2.92;;;;;;;17.29;64.49;101478.97;5142079;28;20438;-61
2023/08/05 03:58:55;;;;;;;4.35;2.40;;;;;;;17.27;64.52;101481.94;5138210;28;20050;-61
2023/08/05 04:01:26;;;;;;;6.88;3.00;;;;;;;17.27;64.59;101484.66;5140117;27;20064;-61
2023/08/05 04:03:54;;;;;;;7.30;2.60;;;;;;;17.27;64.41;101484.66;5137210;28;20054;-61
2023/08/05 04:06:21;;;;;;;8.65;3.10;;;;;;;17.26;64.41;101468.63;5139423;28;20054;-61
2023/08/05 04:08:53;;;;;;;4.55;2.40;;;;;;;17.25;64.57;101467.78;5139936;28;20047;-61
2023/08/05 04:11:21;;;;;;;5.85;2.60;;;;;;;17.24;64.51;101458.81;5136213;28;20039;-62
2023/08/05 04:13:51;;;;;;;4.25;2.75;;;;;;;17.23;64.43;101462.63;5139476;28;20047;-61
2023/08/05 04:16:19;;;;;;;3.88;2.58;;;;;;;17.22;64.55;101455.53;5142460;28;20538;-61
2023/08/05 04:18:49;;;;;;;3.70;2.63;;;;;;;17.21;64.70;101459.31;5141130;28;20051;-61
2023/08/05 04:21:16;;;;;;;4.72;2.70;;;;;;;17.21;64.57;101467.47;5137910;28;20062;-62
2023/08/05 04:23:46;;;;;;;5.47;2.70;;;;;;;17.20;64.58;101459.56;5136888;28;20069;-61
2023/08/05 04:26:14;;;;;;;4.32;2.53;;;;;;;17.20;64.39;101454.97;5140364;28;20810;-62
2023/08/05 04:28:42;;;;;;;5.55;2.60;;;;;;;17.20;64.58;101448.72;5142146;27;20073;-61
2023/08/05 04:31:10;;;;;;;3.30;2.22;;;;;;;17.20;64.55;101437.84;5137585;27;20039;-61
2023/08/05 04:33:38;;;;;;;4.93;2.50;;;;;;;17.19;64.52;101425.34;5143636;27;20070;-61
2023/08/05 04:36:07;;;;;;;5.30;2.58;;;;;;;17.18;64.33;101423.69;5145511;27;20050;-61
2023/08/05 04:38:35;;;;;;;6.65;2.92;;;;;;;17.16;64.59;101426.66;5146515;27;20044;-61
2023/08/05 04:41:02;;;;;;;4.22;2.47;;;;;;;17.17;64.64;101435.63;5139664;27;20054;-61
2023/08/05 04:43:30;;;;;;;5.65;3.10;;;;;;;17.15;64.55;101427.72;5144650;27;20059;-61
2023/08/05 04:45:58;;;;;;;4.13;2.90;;;;;;;17.15;64.65;101424.19;5149426;27;20043;-61
2023/08/05 04:48:26;;;;;;;4.28;2.35;;;;;;;17.15;64.54;101426.91;5144063;27;20079;-62
2023/08/05 04:50:55;;;;;;;6.75;2.70;;;;;;;17.14;64.49;101420.66;5145547;27;20047;-62
2023/08/05 04:53:25;;;;;;;3.72;2.25;;;;;;;17.14;64.62;101415.22;5146266;27;20072;-62
2023/08/05 04:55:52;;;;;;;4.82;2.70;;;;;;;17.13;64.52;101415.47;4793469;27;9999658;-61
2023/08/05 04:58:20;;;;;;;8.07;3.38;;;;;;;17.13;64.45;101415.47;5146474;27;20035;-62
2023/08/05 05:00:48;;;;;;;3.13;2.30;;;;;;;17.12;64.48;101417.38;5145613;27;20051;-62
2023/08/05 05:03:16;;;;;;;3.72;2.40;;;;;;;17.13;64.37;101413.59;5144631;27;20043;-62
2023/08/05 05:05:44;;;;;;;6.18;2.20;;;;;;;17.11;64.34;101420.34;5143533;27;20054;-62
2023/08/05 05:08:12;;;;;;;6.65;2.60;;;;;;;17.10;64.46;101418.69;5145611;27;20068;-63
2023/08/05 05:10:46;;;;;;;4.60;2.65;;;;;;;17.10;64.63;101424.13;5145953;27;20383;-62
2023/08/05 05:13:14;;;;;;;5.70;2.75;;;;;;;17.09;64.57;101414.34;5140905;27;20043;-62
2023/08/05 05:15:42;;;;;;;5.40;2.72;;;;;;;17.09;64.64;101417.06;5143654;27;20054;-62
2023/08/05 05:18:10;;;;;;;3.38;2.67;;;;;;;17.09;64.63;101414.34;5142507;27;20067;-62
2023/08/05 05:20:38;;;;;;;4.03;2.53;;;;;;;17.09;64.48;101408.91;5141885;27;20111;-62
2023/08/05 05:23:05;;;;;;;5.25;2.60;;;;;;;17.07;64.40;101409.16;5141731;27;20050;-62
2023/08/05 05:25:33;;;;;;;4.13;2.70;;;;;;;17.08;64.49;101412.69;5142162;27;20181;-62
2023/08/05 05:28:02;;;;;;;3.85;2.67;;;;;;;17.07;64.68;101408.34;5138143;27;20064;-62
2023/08/05 05:30:30;;;;;;;5.78;2.75;;;;;;;17.06;64.68;101401.25;5141120;27;20095;-62
2023/08/05 05:32:58;;;;;;;4.25;2.50;;;;;;;17.05;64.74;101399.63;5138132;27;20050;-62
2023/08/05 05:35:25;;;;;;;4.07;2.50;;;;;;;17.04;64.74;101396.06;5141842;27;20043;-62
2023/08/05 05:37:54;;;;;;;4.78;2.78;;;;;;;17.03;64.87;101391.72;5143736;27;20134;-62
2023/08/05 05:40:21;;;;;;;5.85;3.30;;;;;;;17.05;64.88;101388.75;5141664;27;20073;-62
2023/08/05 05:42:49;;;;;;;4.43;2.83;;;;;;;17.04;64.75;101389.81;5140657;27;20131;-62
2023/08/05 05:45:21;;;;;;;5.78;3.13;;;;;;;17.04;64.97;101400.69;5140503;27;20047;-63
2023/08/05 05:47:48;;;;;;;6.00;2.63;;;;;;;17.04;64.84;101400.69;5143986;27;20043;-62
2023/08/05 05:50:19;;;;;;;4.93;2.97;;;;;;;17.04;64.71;101398.78;5144930;27;20047;-62
2023/08/05 05:52:48;;;;;;;5.90;3.35;;;;;;;17.05;65.01;101402.34;5144404;27;20047;-61
2023/08/05 05:55:16;;;;;;;5.18;2.40;;;;;;;17.06;65.16;101398.53;5140369;27;20123;-61
2023/08/05 05:57:44;;;;;;;5.85;2.60;;;;;;;17.06;65.16;101403.97;5144047;27;20100;-62
2023/08/05 06:00:14;;;;;;;5.63;2.80;;;;;;;17.06;65.03;101388.50;5144417;27;20668;-61
2023/08/05 06:02:43;;;;;;;5.15;2.83;;;;;;;17.06;65.16;101393.09;5143186;27;20116;-63
2023/08/05 06:05:11;;;;;;;3.55;2.40;;;;;;;17.07;65.21;101403.72;5142551;27;20133;-63
2023/08/05 06:07:40;;;;;;;4.65;2.58;;;;;;;17.09;65.17;101388.00;5138377;27;20066;-62
2023/08/05 06:10:08;;;;;;;3.92;2.45;;;;;;;17.12;65.05;101392.09;5141853;27;20051;-61
2023/08/05 06:12:37;;;;;;;3.13;2.05;;;;;;;17.11;65.00;101385.84;5139329;27;20065;-61
2023/08/05 06:15:07;;;;;;;3.17;2.20;;;;;;;17.12;64.96;101390.22;5140724;27;20074;-61
2023/08/05 06:17:35;;;;;;;11.20;2.92;;;;;;;17.14;65.05;101387.25;5139325;27;20047;-60
2023/08/05 06:20:06;;;;;;;4.78;2.50;;;;;;;17.17;64.79;101389.44;5144201;27;20057;-62
2023/08/05 06:22:34;;;;;;;2.97;2.13;;;;;;;17.16;65.01;101388.63;5142712;27;20502;-62
2023/08/05 06:25:01;;;;;;;3.75;2.22;;;;;;;17.18;64.94;101375.63;5140837;27;20146;-61
2023/08/05 06:27:29;;;;;;;4.38;2.60;;;;;;;17.16;65.09;101375.06;5140248;27;20039;-60
2023/08/05 06:29:57;;;;;;;4.75;2.33;;;;;;;17.16;64.97;101377.78;5138990;27;20047;-62
2023/08/05 06:32:25;;;;;;;4.38;2.83;;;;;;;17.15;65.10;101380.75;5139367;27;20072;-62
2023/08/05 06:34:53;;;;;;;5.90;2.80;;;;;;;17.14;65.37;101381.81;5138778;27;20043;-61
2023/08/05 06:37:22;;;;;;;6.15;3.10;;;;;;;17.13;65.56;101375.56;5137034;27;20111;-61
2023/08/05 06:39:50;;;;;;;4.18;2.78;;;;;;;17.13;65.67;101372.03;5140936;27;20072;-63
2023/08/05 06:42:18;;;;;;;4.65;2.40;;;;;;;17.13;65.68;101366.59;5141809;27;20055;-61
2023/08/05 06:44:47;;;;;;;3.67;2.28;;;;;;;17.14;65.54;101363.63;5136204;27;20450;-61
2023/08/05 06:47:15;;;;;;;5.03;2.55;;;;;;;17.17;65.42;101362.28;5135566;27;20104;-61
2023/08/05 06:49:43;;;;;;;4.15;2.60;;;;;;;17.17;65.39;101362.28;5135886;27;20051;-61
2023/08/05 06:52:11;;;;;;;5.32;2.33;;;;;;;17.16;65.43;101366.91;5137156;27;20051;-61
2023/08/05 06:54:40;;;;;;;5.60;2.58;;;;;;;17.15;65.73;101367.97;5138389;27;20043;-62
2023/08/05 06:57:08;;;;;;;4.40;2.45;;;;;;;17.06;65.75;101342.34;5136411;27;20063;-62
2023/08/05 06:59:36;;;;;;;4.85;2.50;;;;;;;17.15;66.03;101356.28;5141058;27;20050;-62
2023/08/05 07:02:04;;;;;;;4.10;2.53;;;;;;;17.15;65.69;101346.25;5139793;27;20204;-63
2023/08/05 07:04:33;;;;;;;4.68;1.80;;;;;;;17.15;65.86;101356.28;5139552;27;20059;-62
2023/08/05 07:07:01;;;;;;;3.40;1.92;;;;;;;17.15;65.78;101356.28;5143735;27;20066;-62
2023/08/05 07:09:28;;;;;;;3.95;1.90;;;;;;;17.16;65.83;101339.75;5142710;27;20068;-64
2023/08/05 07:11:58;;;;;;;3.83;1.92;;;;;;;17.16;65.66;101338.91;5142580;27;20091;-63
2023/08/05 07:14:25;;;;;;;4.30;1.80;;;;;;;17.17;65.67;101340.56;5135380;27;20047;-62
2023/08/05 07:16:53;;;;;;;5.57;2.10;;;;;;;17.17;65.77;101337.84;5142666;27;20043;-65
2023/08/05 07:19:21;;;;;;;4.60;2.05;;;;;;;17.16;65.74;101330.78;5141750;27;20039;-65
2023/08/05 07:21:51;;;;;;;2.10;1.88;;;;;;;17.17;65.96;101333.22;5132807;27;20051;-63
2023/08/05 07:24:19;;;;;;;5.93;1.90;;;;;;;17.14;65.96;101338.34;5134251;27;20051;-64
2023/08/05 07:26:47;;;;;;;3.83;2.35;;;;;;;17.17;65.92;101335.13;5137441;27;20508;-62
2023/08/05 07:29:16;;;;;;;3.45;2.22;;;;;;;17.07;66.03;101324.97;5136360;27;20051;-64
2023/08/05 07:31:44;;;;;;;3.70;2.15;;;;;;;17.16;66.03;101333.50;5139539;27;20043;-65
2023/08/05 07:34:12;;;;;;;3.90;2.55;;;;;;;17.20;66.23;101331.91;4782317;27;10000078;-61
2023/08/05 07:36:43;;;;;;;3.22;2.20;;;;;;;17.24;66.39;101330.31;5137599;28;20174;-62
2023/08/05 07:39:10;;;;;;;4.35;2.50;;;;;;;17.23;66.04;101334.13;5133971;28;20080;-62
2023/08/05 07:41:38;;;;;;;4.30;2.10;;;;;;;17.21;66.15;101322.69;5140978;28;20484;-62
2023/08/05 07:44:07;;;;;;;2.55;2.05;;;;;;;17.22;66.47;101327.03;5140812;28;20039;-62
2023/08/05 07:46:37;;;;;;;5.35;2.00;;;;;;;17.23;66.39;101325.97;5139392;27;20517;-60
2023/08/05 07:49:07;;;;;;;7.53;3.47;;;;;;;17.27;67.16;101316.22;5140653;27;20058;-59
2023/08/05 07:51:35;;;;;;;4.38;2.80;;;;;;;17.32;67.42;101320.91;5137352;27;20058;-60
2023/08/05 07:54:03;;;;;;;10.60;4.85;;;;;;;17.36;67.81;101319.28;5137858;28;20047;-59
2023/08/05 07:56:32;;;;;;;8.07;2.80;;;;;;;17.36;67.51;101313.84;5141520;28;20050;-60
2023/08/05 07:59:00;;;;;;;7.30;3.00;;;;;;;17.37;67.48;101310.06;5136981;28;20047;-61
2023/08/05 08:01:28;;;;;;;4.63;2.67;;;;;;;17.37;67.08;101302.72;5139161;28;20092;-62
2023/08/05 08:04:01;;;;;;;5.03;2.05;;;;;;;17.40;67.04;101298.69;5136821;28;20043;-62
2023/08/05 08:06:32;;;;;;;6.47;2.50;;;;;;;17.41;67.08;101301.13;5142468;27;20051;-61
2023/08/05 08:08:59;;;;;;;4.22;2.20;;;;;;;17.44;67.03;101297.09;5145417;27;20643;-61
2023/08/05 08:11:27;;;;;;;7.72;2.10;;;;;;;17.45;67.10;101285.16;5144423;27;20146;-60
2023/08/05 08:13:55;;;;;;;5.22;2.03;;;;;;;17.47;66.96;101281.09;5142620;27;20092;-60
2023/08/05 08:16:23;;;;;;;6.32;2.30;;;;;;;17.50;67.22;101282.47;5141885;27;20039;-60
2023/08/05 08:18:51;;;;;;;2.90;2.00;;;;;;;17.52;67.34;101277.59;5144158;27;20035;-59
2023/08/05 08:21:20;;;;;;;4.05;2.05;;;;;;;17.54;67.24;101276.28;5143026;27;21680;-60
2023/08/05 08:23:48;;;;;;;4.63;2.00;;;;;;;17.53;67.32;101274.63;5140529;27;20058;-61
2023/08/05 08:26:15;;;;;;;3.67;2.25;;;;;;;17.57;67.36;101283.09;5140858;27;20048;-60
2023/08/05 08:28:44;;;;;;;4.13;1.80;;;;;;;17.60;67.32;101274.41;5142295;27;20411;-61
2023/08/05 08:31:11;;;;;;;3.00;1.70;;;;;;;17.64;67.29;101272.81;5140955;27;20167;-60
2023/08/05 08:33:39;;;;;;;4.82;1.77;;;;;;;17.63;67.29;101263.03;5142222;27;20073;-62
2023/08/05 08:36:07;;;;;;;5.05;2.00;;;;;;;17.64;67.47;101250.25;5144188;27;20039;-60
2023/08/05 08:38:36;;;;;;;4.20;1.70;;;;;;;17.65;67.38;101251.91;5143868;27;20058;-61
2023/08/05 08:41:04;;;;;;;3.97;2.13;;;;;;;17.65;67.57;101246.47;5140238;27;20058;-60
2023/08/05 08:43:33;;;;;;;2.95;1.98;;;;;;;17.67;67.60;101233.47;5143394;27;20050;-63
2023/08/05 08:46:03;;;;;;;3.83;2.10;;;;;;;17.69;67.53;101236.75;5142692;27;20111;-61
2023/08/05 08:48:33;;;;;;;2.53;1.70;;;;;;;17.70;67.49;101235.66;5141689;27;20051;-61
2023/08/05 08:51:02;;;;;;;1.88;1.38;;;;;;;17.71;67.51;101229.16;5147559;27;20039;-60
2023/08/05 08:53:32;;;;;;;5.72;2.00;;;;;;;17.72;67.55;101223.44;5148284;27;20108;-61
2023/08/05 08:56:01;;;;;;;2.05;1.73;;;;;;;17.73;67.43;101222.38;5141375;27;20047;-60
2023/08/05 08:58:29;;;;;;;3.83;1.75;;;;;;;17.76;67.31;101219.13;5138790;27;20054;-61
2023/08/05 09:00:59;;;;;;;2.80;1.60;;;;;;;17.77;67.37;101218.06;5149195;27;20047;-62
2023/08/05 09:03:29;;;;;;;8.60;2.05;;;;;;;17.79;67.21;101220.50;5149564;27;20051;-60
2023/08/05 09:05:58;;;;;;;3.33;1.70;;;;;;;17.80;67.36;101208.56;5149187;27;20072;-60
2023/08/05 09:08:26;;;;;;;5.50;2.03;;;;;;;17.81;67.39;101211.00;5135161;27;20058;-60
2023/08/05 09:10:53;;;;;;;4.57;2.00;;;;;;;17.81;67.41;101205.56;5147646;27;20099;-60
2023/08/05 09:13:23;;;;;;;2.88;1.50;;;;;;;17.83;67.45;101205.31;5162599;27;20065;-60
2023/08/05 09:15:51;;;;;;;3.40;2.00;;;;;;;17.84;67.51;101196.06;5169991;27;20055;-60
2023/08/05 09:18:19;;;;;;;3.33;1.50;;;;;;;17.84;67.50;101194.19;5166000;27;20061;-61
2023/08/05 09:20:50;;;;;;;3.00;1.77;;;;;;;17.85;67.65;101184.13;5128279;28;20377;-60
2023/08/05 09:23:18;;;;;;;3.05;2.10;;;;;;;17.85;67.40;101182.22;5138904;27;20088;-60
2023/08/05 09:25:48;;;;;;;4.22;1.70;;;;;;;17.87;67.64;101176.53;5166028;27;20381;-60
2023/08/05 09:28:31;;;;;;;3.42;1.80;;;;;;;17.87;67.49;101177.34;5144388;27;20051;-60
2023/08/05 09:31:13;;;;;;;5.75;2.60;;;;;;;17.89;67.48;101175.19;5148777;27;20043;-60
2023/08/05 09:33:42;;;;;;;3.35;1.52;;;;;;;17.88;67.38;101165.38;5145915;27;20075;-60
2023/08/05 09:36:10;;;;;;;2.50;2.17;;;;;;;17.91;67.48;101168.66;5148953;27;20054;-60
2023/08/05 09:38:39;;;;;;;4.47;2.10;;;;;;;17.91;67.36;101165.94;5127783;27;20044;-60
2023/08/05 09:41:08;;;;;;;3.10;1.70;;;;;;;17.92;67.31;101162.97;5128121;28;20061;-60
2023/08/05 09:43:40;;;;;;;3.22;1.90;;;;;;;17.92;67.27;101162.97;5157317;27;20046;-60
2023/08/05 09:46:11;;;;;;;3.20;1.77;;;;;;;17.93;67.47;101155.63;5127895;28;20047;-60
2023/08/05 09:48:42;;;;;;;8.32;2.00;;;;;;;17.93;67.33;101152.91;5127535;28;20059;-59
2023/08/05 09:51:14;;;;;;;2.10;1.83;;;;;;;17.93;67.39;101158.34;5166837;27;20035;-61
2023/08/05 09:53:43;;;;;;;4.55;2.13;;;;;;;17.92;67.43;101149.34;5158954;27;20047;-60
2023/08/05 09:56:12;;;;;;;2.55;1.90;;;;;;;17.91;67.30;101134.13;5129580;27;20056;-60
2023/08/05 09:58:42;;;;;;;4.38;2.03;;;;;;;17.93;67.31;101140.13;5127260;27;20092;-60
2023/08/05 10:01:12;;;;;;;2.13;1.60;;;;;;;17.92;67.33;101130.31;5127532;28;20051;-60
2023/08/05 10:03:40;;;;;;;2.65;1.90;;;;;;;17.93;67.26;101121.09;5127694;28;20051;-60
2023/08/05 10:06:09;;;;;;;3.15;2.05;;;;;;;17.93;67.24;101121.09;5140140;27;20040;-60
2023/08/05 10:08:40;;;;;;;2.92;1.85;;;;;;;17.94;67.39;101117.28;5144289;27;20054;-60
2023/08/05 10:11:09;;;;;;;3.45;2.00;;;;;;;17.95;67.21;101118.09;5168886;27;20046;-60
2023/08/05 10:13:39;;;;;;;1.60;1.33;;;;;;;17.93;67.25;101112.09;5168972;27;20046;-60
2023/08/05 10:16:10;;;;;;;4.85;2.30;;;;;;;17.96;67.47;101120.56;5154861;27;20043;-60
2023/08/05 10:18:39;;;;;;;4.00;2.38;;;;;;;17.97;67.49;101116.75;5127373;28;20062;-60
2023/08/05 10:21:09;;;;;;;11.93;2.15;;;;;;;17.98;67.28;101109.41;5127098;28;20055;-60
2023/08/05 10:23:37;;;;;;;4.70;2.70;;;;;;;17.99;67.52;101109.16;5136535;27;20059;-60
2023/08/05 10:26:06;;;;;;;4.22;2.20;;;;;;;17.99;67.54;101109.16;5140145;27;20042;-61
2023/08/05 10:28:41;;;;;;;4.97;2.22;;;;;;;18.00;67.62;101112.69;5151661;27;20047;-60
2023/08/05 10:31:28;;;;;;;3.15;1.92;;;;;;;17.99;67.45;101111.06;5147313;27;20058;-60
2023/08/05 10:34:18;;;;;;;3.38;2.47;;;;;;;17.99;67.64;101100.16;5144883;27;20069;-60
2023/08/05 10:36:48;;;;;;;4.90;2.50;;;;;;;18.00;67.47;101099.09;5142992;27;20050;-60
2023/08/05 10:39:41;;;;;;;4.53;2.92;;;;;;;18.00;67.37;101102.63;5126730;27;20054;-60
2023/08/05 10:42:32;;;;;;;3.30;2.50;;;;;;;18.01;67.45;101089.84;5133716;27;20403;-60
2023/08/05 10:45:00;;;;;;;6.60;2.50;;;;;;;18.02;67.45;101096.91;5134523;27;20069;-60
2023/08/05 10:47:30;;;;;;;3.97;2.78;;;;;;;18.03;67.31;101093.13;5126692;28;20471;-60
2023/08/05 10:49:58;;;;;;;3.70;2.55;;;;;;;18.04;67.25;101098.28;5145097;27;20396;-60
2023/08/05 10:52:30;;;;;;;4.40;2.50;;;;;;;18.05;67.25;101097.22;5157501;27;20142;-60
2023/08/05 10:54:58;;;;;;;2.72;2.00;;;;;;;18.06;66.96;101096.13;5126550;28;20055;-62
2023/08/05 10:57:30;;;;;;;4.40;2.38;;;;;;;18.07;67.01;101086.88;5126567;28;20047;-59
2023/08/05 10:59:58;;;;;;;4.82;2.42;;;;;;;18.09;66.82;101089.34;5126723;28;20043;-60
2023/08/05 11:02:26;;;;;;;3.03;2.03;;;;;;;18.09;66.82;101086.63;5133539;27;20051;-60
2023/08/05 11:05:07;;;;;;;3.80;2.30;;;;;;;18.12;66.82;101088.81;5144133;27;20043;-60
2023/08/05 11:07:37;;;;;;;3.95;2.58;;;;;;;18.13;66.64;101085.81;5167496;27;20852;-60
2023/08/05 11:10:07;;;;;;;4.93;2.42;;;;;;;18.14;66.43;101081.19;5141940;27;20052;-60
2023/08/05 11:12:35;;;;;;;5.88;2.80;;;;;;;18.14;66.40;101079.28;5126138;27;20096;-60
2023/08/05 11:15:03;;;;;;;6.90;2.42;;;;;;;18.14;66.15;101084.72;5126298;28;20112;-60
2023/08/05 11:17:31;;;;;;;4.53;2.33;;;;;;;18.15;66.07;101082.84;5126204;27;20077;-60
2023/08/05 11:19:59;;;;;;;5.13;2.40;;;;;;;18.15;66.10;101070.06;5126045;28;20044;-60
2023/08/05 11:22:30;;;;;;;5.38;2.40;;;;;;;18.16;66.15;101055.38;5125910;28;20039;-60
2023/08/05 11:24:58;;;;;;;6.63;2.50;;;;;;;18.16;65.90;101058.09;5165709;27;20472;-60
2023/08/05 11:27:31;;;;;;;5.25;2.75;;;;;;;18.17;66.02;101064.34;5142267;27;20043;-60
2023/08/05 11:29:59;;;;;;;4.80;2.75;;;;;;;18.18;66.01;101065.97;5125701;28;20063;-60
2023/08/05 11:32:30;;;;;;;5.13;2.60;;;;;;;18.18;65.82;101057.81;5126183;28;20082;-60